createdAt,value
2017-10-01T00:02:13.575Z,96011.25
2017-10-01T00:04:41.474Z,96006.80
2017-10-01T00:07:10.022Z,96005.30
2017-10-01T00:09:38.285Z,96000.55
2017-10-01T00:12:05.852Z,96004.34
2017-10-01T00:14:33.402Z,96004.43
2017-10-01T00:17:01.071Z,96000.47
2017-10-01T00:19:29.454Z,96003.70
2017-10-01T00:21:57.106Z,95998.78
2017-10-01T00:24:24.979Z,96001.33
2017-10-01T00:26:52.864Z,96002.45
2017-10-01T00:29:20.873Z,95997.36
2017-10-01T00:31:48.485Z,96004.98
2017-10-01T00:34:16.045Z,95995.61
2017-10-01T00:36:43.888Z,95992.52
2017-10-01T00:39:11.619Z,95998.63
2017-10-01T00:41:39.375Z,95991.80
2017-10-01T00:44:07.147Z,95994.02
2017-10-01T00:46:35.645Z,95994.02
2017-10-01T00:49:03.686Z,95992.74
2017-10-01T00:51:31.337Z,95989.88
2017-10-01T00:53:59.212Z,95987.82
2017-10-01T00:56:26.798Z,95991.33
2017-10-01T00:58:54.417Z,95997.37
2017-10-01T01:01:22.022Z,95996.81
2017-10-01T01:03:49.794Z,95989.99
2017-10-01T01:06:17.625Z,95992.84
2017-10-01T01:08:45.535Z,95986.88
2017-10-01T01:11:13.120Z,95991.87
2017-10-01T01:13:40.759Z,95994.57
2017-10-01T01:16:08.337Z,95998.33
2017-10-01T01:18:35.901Z,95996.47
2017-10-01T01:21:03.554Z,95999.89
2017-10-01T01:23:31.867Z,95997.42
2017-10-01T01:25:59.529Z,95997.19
2017-10-01T01:28:27.323Z,95998.45
2017-10-01T01:30:54.933Z,96000.36
2017-10-01T01:33:22.731Z,96002.17
2017-10-01T01:35:50.567Z,96008.16
2017-10-01T01:38:18.465Z,96003.08
2017-10-01T01:40:46.086Z,96002.74
2017-10-01T01:43:15.093Z,96000.83
2017-10-01T01:45:43.723Z,95999.65
2017-10-01T01:48:11.412Z,96000.45
2017-10-01T01:50:39.268Z,96005.84
2017-10-01T01:53:06.934Z,96006.31
2017-10-01T01:55:35.242Z,96003.12
2017-10-01T01:58:03.110Z,96001.95
2017-10-01T02:00:30.733Z,96002.98
2017-10-01T02:02:58.303Z,96002.41
2017-10-01T02:05:26.007Z,96004.48
2017-10-01T02:07:53.614Z,96001.66
2017-10-01T02:10:21.613Z,96007.30
2017-10-01T02:12:49.570Z,96010.79
2017-10-01T02:15:17.177Z,96011.73
2017-10-01T02:17:45.770Z,96010.28
2017-10-01T02:20:14.133Z,96006.89
2017-10-01T02:22:42.034Z,96007.22
2017-10-01T02:25:10.054Z,96015.31
2017-10-01T02:27:37.748Z,96007.98
2017-10-01T02:30:05.953Z,96006.66
2017-10-01T02:32:33.620Z,96010.89
2017-10-01T02:35:02.171Z,96010.91
2017-10-01T02:37:30.182Z,96014.98
2017-10-01T02:39:58.015Z,96011.98
2017-10-01T02:42:25.982Z,96009.71
2017-10-01T02:44:53.652Z,96014.67
2017-10-01T02:47:21.266Z,96013.56
2017-10-01T02:49:49.395Z,96010.70
2017-10-01T02:52:17.719Z,96009.42
2017-10-01T02:54:45.297Z,96014.69
2017-10-01T02:57:12.959Z,96017.91
2017-10-01T02:59:40.608Z,96007.27
2017-10-01T03:02:10.190Z,96005.78
2017-10-01T03:04:37.831Z,96012.99
2017-10-01T03:07:05.637Z,96005.84
2017-10-01T03:09:34.137Z,96015.95
2017-10-01T03:12:01.724Z,96014.69
2017-10-01T03:14:29.628Z,96013.79
2017-10-01T03:16:57.259Z,96011.89
2017-10-01T03:19:25.129Z,96017.44
2017-10-01T03:21:52.979Z,96022.52
2017-10-01T03:24:20.803Z,96029.21
2017-10-01T03:26:49.903Z,96021.35
2017-10-01T03:29:17.559Z,96029.75
2017-10-01T03:31:45.443Z,96022.93
2017-10-01T03:34:13.988Z,96020.63
2017-10-01T03:36:42.453Z,96019.28
2017-10-01T03:39:10.147Z,96029.52
2017-10-01T03:41:38.039Z,96026.77
2017-10-01T03:44:06.125Z,96023.52
2017-10-01T03:46:33.768Z,96022.00
2017-10-01T03:49:01.659Z,96028.41
2017-10-01T03:51:30.007Z,96026.20
2017-10-01T03:53:57.868Z,96028.41
2017-10-01T03:56:26.401Z,96026.67
2017-10-01T03:58:53.981Z,96026.80
2017-10-01T04:01:22.063Z,96029.30
2017-10-01T04:03:49.889Z,96026.52
2017-10-01T04:06:17.707Z,96025.46
2017-10-01T04:08:45.482Z,96030.09
2017-10-01T04:11:14.167Z,96023.49
2017-10-01T04:13:41.777Z,96025.91
2017-10-01T04:16:09.455Z,96022.86
2017-10-01T04:18:37.076Z,96030.30
2017-10-01T04:21:05.463Z,96023.33
2017-10-01T04:23:33.563Z,96031.30
2017-10-01T04:26:01.319Z,96033.81
2017-10-01T04:28:29.874Z,96033.75
2017-10-01T04:30:59.116Z,96039.56
2017-10-01T04:33:26.732Z,96038.51
2017-10-01T04:35:54.557Z,96043.20
2017-10-01T04:38:22.942Z,96042.09
2017-10-01T04:40:50.577Z,96049.80
2017-10-01T04:43:18.201Z,96043.82
2017-10-01T04:45:46.997Z,96045.83
2017-10-01T04:48:14.595Z,96047.06
2017-10-01T04:50:42.947Z,96058.14
2017-10-01T04:53:11.530Z,96056.78
2017-10-01T04:55:40.253Z,96059.58
2017-10-01T04:58:07.802Z,96058.93
2017-10-01T05:00:36.119Z,96058.94
2017-10-01T05:03:03.683Z,96055.37
2017-10-01T05:05:31.321Z,96059.97
2017-10-01T05:07:59.137Z,96058.80
2017-10-01T05:10:26.803Z,96059.23
2017-10-01T05:12:54.843Z,96057.34
2017-10-01T05:15:22.814Z,96056.16
2017-10-01T05:17:50.407Z,96064.64
2017-10-01T05:20:18.166Z,96062.02
2017-10-01T05:22:45.850Z,96068.77
2017-10-01T05:25:13.810Z,96062.67
2017-10-01T05:27:41.382Z,96069.83
2017-10-01T05:30:09.106Z,96070.03
2017-10-01T05:32:36.677Z,96073.48
2017-10-01T05:35:04.307Z,96083.55
2017-10-01T05:37:32.420Z,96079.04
2017-10-01T05:40:00.213Z,96073.95
2017-10-01T05:42:28.812Z,96077.30
2017-10-01T05:44:56.458Z,96084.73
2017-10-01T05:47:24.009Z,96080.47
2017-10-01T05:49:51.786Z,96082.30
2017-10-01T05:52:19.578Z,96084.82
2017-10-01T05:54:47.231Z,96082.94
2017-10-01T05:57:15.016Z,96084.20
2017-10-01T05:59:42.626Z,96092.08
2017-10-01T06:02:10.298Z,96090.48
2017-10-01T06:04:37.901Z,96088.93
2017-10-01T06:07:05.710Z,96097.27
2017-10-01T06:09:33.330Z,96101.27
2017-10-01T06:12:01.000Z,96096.13
2017-10-01T06:14:29.550Z,96099.47
2017-10-01T06:16:57.150Z,96106.32
2017-10-01T06:19:24.922Z,96105.20
2017-10-01T06:21:52.971Z,96099.49
2017-10-01T06:24:20.696Z,96109.41
2017-10-01T06:26:48.253Z,96103.84
2017-10-01T06:29:16.697Z,96103.56
2017-10-01T06:31:44.365Z,96099.84
2017-10-01T06:34:12.091Z,96107.83
2017-10-01T06:36:39.680Z,96107.41
2017-10-01T06:39:07.368Z,96116.42
2017-10-01T06:41:35.041Z,96110.03
2017-10-01T06:44:02.718Z,96116.29
2017-10-01T06:46:31.000Z,96115.22
2017-10-01T06:48:58.762Z,96114.47
2017-10-01T06:51:26.497Z,96121.02
2017-10-01T06:53:54.247Z,96117.45
2017-10-01T06:56:21.925Z,96121.49
2017-10-01T06:59:04.253Z,96118.50
2017-10-01T07:01:32.477Z,96124.05
2017-10-01T07:04:00.961Z,96130.75
2017-10-01T07:06:40.915Z,96122.58
2017-10-01T07:09:09.775Z,96117.70
2017-10-01T07:11:39.027Z,96116.84
2017-10-01T07:14:07.007Z,96116.53
2017-10-01T07:16:35.585Z,96111.64
2017-10-01T07:19:03.481Z,96112.53
2017-10-01T07:21:31.205Z,96120.52
2017-10-01T07:23:59.138Z,96107.77
2017-10-01T07:26:27.294Z,96116.28
2017-10-01T07:28:55.070Z,96119.83
2017-10-01T07:31:23.082Z,96126.35
2017-10-01T07:33:50.861Z,96129.93
2017-10-01T07:36:18.622Z,96127.50
2017-10-01T07:38:48.200Z,96131.74
2017-10-01T07:41:15.953Z,96119.62
2017-10-01T07:43:44.878Z,96123.77
2017-10-01T07:46:12.619Z,96123.95
2017-10-01T07:48:40.973Z,96123.52
2017-10-01T07:51:08.770Z,96129.36
2017-10-01T07:53:36.550Z,96140.03
2017-10-01T07:56:04.321Z,96130.55
2017-10-01T07:58:32.098Z,96133.75
2017-10-01T08:00:59.852Z,96137.34
2017-10-01T08:03:28.085Z,96142.77
2017-10-01T08:05:55.701Z,96144.35
2017-10-01T08:08:23.280Z,96141.68
2017-10-01T08:10:51.487Z,96133.23
2017-10-01T08:13:20.020Z,96131.10
2017-10-01T08:15:47.640Z,96138.61
2017-10-01T08:18:15.421Z,96138.24
2017-10-01T08:20:43.071Z,96140.09
2017-10-01T08:23:10.706Z,96133.19
2017-10-01T08:25:38.607Z,96136.55
2017-10-01T08:28:06.390Z,96131.53
2017-10-01T08:30:34.220Z,96138.55
2017-10-01T08:33:04.020Z,96138.73
2017-10-01T08:35:32.916Z,96146.68
2017-10-01T08:38:01.219Z,96136.16
2017-10-01T08:40:29.480Z,96142.14
2017-10-01T08:42:57.527Z,96135.91
2017-10-01T08:45:25.239Z,96138.08
2017-10-01T08:47:52.771Z,96143.27
2017-10-01T08:50:21.138Z,96132.98
2017-10-01T08:52:48.852Z,96131.64
2017-10-01T08:55:16.583Z,96134.95
2017-10-01T08:57:44.142Z,96131.75
2017-10-01T09:00:11.866Z,96140.19
2017-10-01T09:02:39.592Z,96140.00
2017-10-01T09:05:07.929Z,96136.89
2017-10-01T09:07:36.519Z,96133.59
2017-10-01T09:10:04.167Z,96128.08
2017-10-01T09:12:31.940Z,96132.42
2017-10-01T09:14:59.941Z,96129.66
2017-10-01T09:17:27.866Z,96125.77
2017-10-01T09:19:55.398Z,96125.86
2017-10-01T09:22:22.956Z,96137.35
2017-10-01T09:24:51.137Z,96129.12
2017-10-01T09:27:18.914Z,96131.28
2017-10-01T09:29:47.094Z,96126.94
2017-10-01T09:32:14.679Z,96124.36
2017-10-01T09:34:43.286Z,96119.02
2017-10-01T09:37:10.897Z,96125.81
2017-10-01T09:39:38.460Z,96121.30
2017-10-01T09:42:05.991Z,96120.20
2017-10-01T09:44:34.526Z,96127.25
2017-10-01T09:47:02.079Z,96134.41
2017-10-01T09:49:29.675Z,96126.06
2017-10-01T09:51:57.442Z,96128.55
2017-10-01T09:54:24.985Z,96131.66
2017-10-01T09:56:52.746Z,96128.32
2017-10-01T09:59:20.344Z,96125.46
2017-10-01T10:01:48.117Z,96123.75
2017-10-01T10:04:15.831Z,96122.22
2017-10-01T10:06:44.173Z,96133.98
2017-10-01T10:09:12.086Z,96133.33
2017-10-01T10:11:39.745Z,96134.16
2017-10-01T10:14:07.610Z,96126.48
2017-10-01T10:16:35.394Z,96124.05
2017-10-01T10:19:03.196Z,96113.47
2017-10-01T10:21:30.958Z,96105.17
2017-10-01T10:23:58.775Z,96112.26
2017-10-01T10:26:27.530Z,96128.67
2017-10-01T10:28:55.316Z,96112.64
2017-10-01T10:34:04.922Z,96133.92
2017-10-01T10:36:32.500Z,96124.02
2017-10-01T10:39:00.011Z,96122.44
2017-10-01T10:41:27.816Z,96121.17
2017-10-01T10:43:55.867Z,96129.04
2017-10-01T10:46:23.401Z,96124.82
2017-10-01T10:48:51.027Z,96117.06
2017-10-01T10:51:19.600Z,96117.26
2017-10-01T10:53:47.213Z,96121.86
2017-10-01T10:56:14.765Z,96125.01
2017-10-01T10:58:42.343Z,96123.94
2017-10-01T11:01:09.963Z,96124.14
2017-10-01T11:03:37.811Z,96120.52
2017-10-01T11:06:05.399Z,96119.82
2017-10-01T11:08:32.988Z,96116.34
2017-10-01T11:11:00.594Z,96116.50
2017-10-01T11:13:28.334Z,96136.71
2017-10-01T11:15:55.941Z,96115.73
2017-10-01T11:18:23.582Z,96118.87
2017-10-01T11:20:51.187Z,96113.70
2017-10-01T11:23:18.819Z,96127.66
2017-10-01T11:25:46.572Z,96120.68
2017-10-01T11:28:14.877Z,96111.81
2017-10-01T11:30:42.514Z,96116.08
2017-10-01T11:33:10.037Z,96109.47
2017-10-01T11:35:38.093Z,96129.95
2017-10-01T11:38:05.678Z,96124.31
2017-10-01T11:40:33.312Z,96120.03
2017-10-01T11:43:01.043Z,96124.91
2017-10-01T11:45:28.689Z,96135.95
2017-10-01T11:47:57.264Z,96120.07
2017-10-01T11:50:24.779Z,96121.14
2017-10-01T11:52:53.211Z,96121.48
2017-10-01T11:55:20.814Z,96126.49
2017-10-01T11:57:48.368Z,96119.82
2017-10-01T12:00:15.993Z,96124.14
2017-10-01T12:02:43.748Z,96122.86
2017-10-01T12:05:11.364Z,96122.46
2017-10-01T12:07:39.881Z,96129.34
2017-10-01T12:10:08.647Z,96124.13
2017-10-01T12:12:36.282Z,96116.39
2017-10-01T12:15:05.422Z,96130.30
2017-10-01T12:17:32.964Z,96113.61
2017-10-01T12:20:00.702Z,96119.70
2017-10-01T12:22:28.293Z,96120.80
2017-10-01T12:24:56.058Z,96122.55
2017-10-01T12:27:23.615Z,96140.90
2017-10-01T12:29:52.720Z,96111.91
2017-10-01T12:32:20.482Z,96119.58
2017-10-01T12:34:48.278Z,96124.80
2017-10-01T12:37:16.579Z,96133.88
2017-10-01T12:39:44.922Z,96122.00
2017-10-01T12:42:12.987Z,96126.03
2017-10-01T12:44:40.801Z,96123.05
2017-10-01T12:47:08.405Z,96133.17
2017-10-01T12:49:36.922Z,96131.09
2017-10-01T12:52:04.558Z,96132.26
2017-10-01T12:54:32.381Z,96124.11
2017-10-01T12:56:59.978Z,96140.55
2017-10-01T12:59:28.002Z,96127.45
2017-10-01T13:02:01.287Z,96136.83
2017-10-01T13:04:29.447Z,96132.99
2017-10-01T13:06:57.133Z,96123.64
2017-10-01T13:09:24.802Z,96128.12
2017-10-01T13:11:52.615Z,96129.81
2017-10-01T13:14:21.187Z,96127.69
2017-10-01T13:16:48.751Z,96116.20
2017-10-01T13:19:16.699Z,96124.25
2017-10-01T13:21:44.370Z,96127.19
2017-10-01T13:24:12.054Z,96123.56
2017-10-01T13:26:39.687Z,96123.62
2017-10-01T13:29:07.303Z,96126.36
2017-10-01T13:31:35.733Z,96138.39
2017-10-01T13:34:03.418Z,96126.36
2017-10-01T13:36:31.003Z,96128.30
2017-10-01T13:39:03.530Z,96139.33
2017-10-01T13:41:31.291Z,96127.95
2017-10-01T13:43:59.089Z,96130.86
2017-10-01T13:46:27.630Z,96119.06
2017-10-01T13:48:55.203Z,96128.09
2017-10-01T13:51:22.847Z,96143.19
2017-10-01T13:53:50.482Z,96131.47
2017-10-01T13:56:18.086Z,96130.75
2017-10-01T13:58:46.947Z,96133.17
2017-10-01T14:01:15.361Z,96130.33
2017-10-01T14:03:43.161Z,96137.09
2017-10-01T14:06:12.691Z,96127.91
2017-10-01T14:08:40.273Z,96139.41
2017-10-01T14:11:08.083Z,96142.56
2017-10-01T14:13:36.511Z,96144.92
2017-10-01T14:16:04.499Z,96149.88
2017-10-01T14:18:34.402Z,96141.14
2017-10-01T14:21:07.919Z,96139.08
2017-10-01T14:23:41.380Z,96136.42
2017-10-01T14:26:15.479Z,96139.05
2017-10-01T14:28:43.384Z,96139.09
2017-10-01T14:31:17.846Z,96145.51
2017-10-01T14:33:50.707Z,96141.70
2017-10-01T14:36:21.198Z,96142.55
2017-10-01T14:38:50.718Z,96137.98
2017-10-01T14:41:19.553Z,96145.63
2017-10-01T14:43:47.234Z,96135.41
2017-10-01T14:46:15.440Z,96130.39
2017-10-01T14:48:45.229Z,96141.40
2017-10-01T14:51:14.923Z,96142.83
2017-10-01T14:53:44.771Z,96149.34
2017-10-01T14:56:14.294Z,96143.21
2017-10-01T14:58:41.997Z,96144.95
2017-10-01T15:01:12.176Z,96146.47
2017-10-01T15:03:42.046Z,96146.11
2017-10-01T15:06:10.084Z,96150.07
2017-10-01T15:08:39.055Z,96152.42
2017-10-01T15:11:06.854Z,96156.77
2017-10-01T15:13:34.555Z,96152.16
2017-10-01T15:16:05.612Z,96151.56
2017-10-01T15:27:57.133Z,96157.73
2017-10-01T15:30:26.880Z,96165.22
2017-10-01T15:33:00.380Z,96163.15
2017-10-01T15:35:29.201Z,96159.67
2017-10-01T15:38:15.939Z,96158.35
2017-10-01T15:40:45.260Z,96164.52
2017-10-01T15:43:14.447Z,96151.42
2017-10-01T15:45:42.238Z,96159.30
2017-10-01T15:48:09.967Z,96166.20
2017-10-01T15:51:02.676Z,96159.95
2017-10-01T15:56:57.431Z,96163.12
2017-10-01T15:59:26.840Z,96169.92
2017-10-01T16:01:54.442Z,96159.37
2017-10-01T16:04:22.384Z,96170.35
2017-10-01T16:06:52.379Z,96164.69
2017-10-01T16:09:20.370Z,96163.39
2017-10-01T16:11:48.298Z,96163.16
2017-10-01T16:14:16.442Z,96165.09
2017-10-01T16:16:54.049Z,96168.58
2017-10-01T16:19:22.226Z,96157.27
2017-10-01T16:21:49.787Z,96168.53
2017-10-01T16:24:18.194Z,96155.91
2017-10-01T16:26:46.717Z,96161.66
2017-10-01T16:29:15.214Z,96166.97
2017-10-01T16:31:42.905Z,96163.42
2017-10-01T16:34:10.614Z,96166.20
2017-10-01T16:36:39.095Z,96164.96
2017-10-01T16:39:06.812Z,96165.67
2017-10-01T16:41:35.212Z,96168.89
2017-10-01T16:44:03.519Z,96166.30
2017-10-01T16:46:31.151Z,96159.89
2017-10-01T16:48:58.745Z,96165.86
2017-10-01T16:51:26.706Z,96173.02
2017-10-01T16:53:54.528Z,96165.53
2017-10-01T16:56:22.856Z,96172.06
2017-10-01T16:58:50.581Z,96165.86
2017-10-01T17:01:18.385Z,96168.17
2017-10-01T17:03:46.167Z,96166.23
2017-10-01T17:06:14.357Z,96177.30
2017-10-01T17:08:42.148Z,96173.34
2017-10-01T17:11:09.952Z,96175.63
2017-10-01T17:13:38.018Z,96179.39
2017-10-01T17:16:05.670Z,96172.84
2017-10-01T17:18:35.224Z,96173.67
2017-10-01T17:21:03.147Z,96180.14
2017-10-01T17:23:33.358Z,96174.73
2017-10-01T17:26:02.069Z,96179.22
2017-10-01T17:28:29.843Z,96177.48
2017-10-01T17:30:57.616Z,96177.95
2017-10-01T17:33:25.362Z,96186.32
2017-10-01T17:35:53.610Z,96188.28
2017-10-01T17:38:21.323Z,96187.50
2017-10-01T17:40:49.474Z,96188.05
2017-10-01T17:43:17.181Z,96196.64
2017-10-01T17:45:44.957Z,96197.52
2017-10-01T17:48:13.610Z,96196.92
2017-10-01T17:50:42.047Z,96196.59
2017-10-01T17:53:19.680Z,96200.01
2017-10-01T17:55:48.341Z,96199.69
2017-10-01T17:58:16.874Z,96208.13
2017-10-01T18:00:44.925Z,96204.45
2017-10-01T18:03:17.943Z,96208.25
2017-10-01T18:05:45.515Z,96207.50
2017-10-01T18:08:13.093Z,96211.78
2017-10-01T18:10:41.796Z,96217.28
2017-10-01T18:13:09.481Z,96213.23
2017-10-01T18:15:37.981Z,96218.24
2017-10-01T18:18:05.851Z,96210.66
2017-10-01T18:20:33.937Z,96214.98
2017-10-01T18:23:02.031Z,96214.40
2017-10-01T18:25:30.055Z,96209.88
2017-10-01T18:27:58.825Z,96212.27
2017-10-01T18:30:26.431Z,96218.02
2017-10-01T18:32:54.209Z,96216.34
2017-10-01T18:35:22.074Z,96221.45
2017-10-01T18:37:50.318Z,96220.71
2017-10-01T18:40:17.963Z,96220.03
2017-10-01T18:42:46.000Z,96227.67
2017-10-01T18:45:15.399Z,96220.73
2017-10-01T18:47:43.910Z,96220.81
2017-10-01T18:50:13.162Z,96224.46
2017-10-01T18:52:40.852Z,96224.23
2017-10-01T18:55:13.432Z,96226.00
2017-10-01T18:57:43.779Z,96227.10
2017-10-01T19:00:13.021Z,96241.36
2017-10-01T19:02:41.579Z,96234.98
2017-10-01T19:05:09.151Z,96232.34
2017-10-01T19:07:39.853Z,96233.00
2017-10-01T19:10:07.522Z,96249.69
2017-10-01T19:12:35.939Z,96241.41
2017-10-01T19:18:32.087Z,96246.27
2017-10-01T19:21:00.476Z,96241.73
2017-10-01T19:23:28.895Z,96245.50
2017-10-01T19:25:56.547Z,96254.26
2017-10-01T19:28:26.972Z,96245.20
2017-10-01T19:30:54.585Z,96250.75
2017-10-01T19:33:22.450Z,96250.76
2017-10-01T19:35:51.984Z,96243.63
2017-10-01T19:38:21.688Z,96251.02
2017-10-01T19:40:51.564Z,96248.92
2017-10-01T19:43:21.439Z,96247.69
2017-10-01T19:45:54.069Z,96263.75
2017-10-01T19:48:25.787Z,96256.34
2017-10-01T19:50:58.428Z,96251.78
2017-10-01T19:56:04.787Z,96252.54
2017-10-01T20:01:27.150Z,96255.05
2017-10-01T20:03:58.214Z,96254.24
2017-10-01T20:06:29.118Z,96257.69
2017-10-01T20:09:00.618Z,96263.64
2017-10-01T20:11:32.987Z,96261.55
2017-10-01T20:14:08.454Z,96262.17
2017-10-01T20:16:36.182Z,96264.44
2017-10-01T20:19:03.784Z,96266.34
2017-10-01T20:21:32.437Z,96262.69
2017-10-01T20:24:00.490Z,96263.64
2017-10-01T20:26:28.235Z,96265.07
2017-10-01T20:28:56.165Z,96264.94
2017-10-01T20:31:24.796Z,96256.47
2017-10-01T20:33:52.948Z,96258.23
2017-10-01T20:36:21.133Z,96264.70
2017-10-01T20:38:49.903Z,96263.16
2017-10-01T20:41:18.844Z,96266.39
2017-10-01T20:43:46.677Z,96261.42
2017-10-01T20:46:14.997Z,96262.84
2017-10-01T20:48:43.653Z,96268.48
2017-10-01T20:51:11.423Z,96263.35
2017-10-01T20:53:39.109Z,96275.12
2017-10-01T20:56:06.777Z,96268.98
2017-10-01T20:58:35.597Z,96271.75
2017-10-01T21:01:03.214Z,96278.02
2017-10-01T21:03:31.049Z,96279.30
2017-10-01T21:05:58.831Z,96276.73
2017-10-01T21:08:26.449Z,96280.71
2017-10-01T21:10:54.084Z,96271.09
2017-10-01T21:13:21.673Z,96285.59
2017-10-01T21:15:49.459Z,96279.92
2017-10-01T21:18:17.803Z,96272.70
2017-10-01T21:20:45.421Z,96272.30
2017-10-01T21:23:13.022Z,96271.28
2017-10-01T21:25:40.638Z,96279.38
2017-10-01T21:28:08.612Z,96277.94
2017-10-01T21:30:36.921Z,96276.47
2017-10-01T21:33:04.558Z,96272.34
2017-10-01T21:35:32.933Z,96280.31
2017-10-01T21:38:00.592Z,96282.69
2017-10-01T21:40:29.016Z,96287.34
2017-10-01T21:42:56.659Z,96284.64
2017-10-01T21:45:25.313Z,96286.77
2017-10-01T21:47:53.546Z,96286.03
2017-10-01T21:50:21.587Z,96287.64
2017-10-01T21:52:49.383Z,96287.38
2017-10-01T21:55:17.087Z,96286.07
2017-10-01T21:57:44.681Z,96280.81
2017-10-01T22:00:12.291Z,96283.73
2017-10-01T22:02:41.398Z,96276.76
2017-10-01T22:05:09.235Z,96277.59
2017-10-01T22:07:36.842Z,96282.23
2017-10-01T22:10:04.692Z,96273.57
2017-10-01T22:12:32.338Z,96278.33
2017-10-01T22:15:00.897Z,96285.88
2017-10-01T22:17:29.166Z,96286.89
2017-10-01T22:19:56.760Z,96292.16
2017-10-01T22:22:24.440Z,96292.82
2017-10-01T22:24:52.957Z,96288.62
2017-10-01T22:27:21.643Z,96296.62
2017-10-01T22:29:50.157Z,96296.73
2017-10-01T22:32:18.112Z,96295.47
2017-10-01T22:34:45.878Z,96296.19
2017-10-01T22:37:13.542Z,96289.17
2017-10-01T22:39:41.323Z,96296.99
2017-10-01T22:42:09.630Z,96295.83
2017-10-01T22:44:37.557Z,96299.95
2017-10-01T22:47:05.587Z,96297.26
2017-10-01T22:49:33.457Z,96297.88
2017-10-01T22:52:01.091Z,96303.97
2017-10-01T22:54:28.742Z,96306.88
2017-10-01T22:56:56.653Z,96306.40
2017-10-01T22:59:39.834Z,96304.31
2017-10-01T23:02:07.483Z,96308.30
2017-10-01T23:04:35.084Z,96308.70
2017-10-01T23:07:02.839Z,96307.42
2017-10-01T23:09:30.410Z,96311.54
2017-10-01T23:11:58.194Z,96304.45
2017-10-01T23:14:25.830Z,96296.25
2017-10-01T23:16:53.986Z,96304.44
2017-10-01T23:19:21.613Z,96298.95
2017-10-01T23:21:50.638Z,96295.23
2017-10-01T23:24:18.269Z,96296.20
2017-10-01T23:26:46.274Z,96297.09
2017-10-01T23:29:13.873Z,96302.02
2017-10-01T23:31:41.500Z,96302.88
2017-10-01T23:34:09.299Z,96301.39
2017-10-01T23:36:36.832Z,96304.61
2017-10-01T23:39:04.437Z,96307.81
2017-10-01T23:41:33.076Z,96292.73
2017-10-01T23:44:00.974Z,96291.43
2017-10-01T23:46:28.524Z,96296.37
2017-10-01T23:48:56.204Z,96292.39
2017-10-01T23:51:23.747Z,96295.98
2017-10-01T23:53:51.376Z,96293.32
2017-10-01T23:56:20.650Z,96297.37
2017-10-01T23:58:48.257Z,96292.59
